createdAt,value
2023-04-29T00:00:24.407Z,1002.64
2023-04-29T00:00:41.601Z,1002.64
2023-04-29T00:01:19.808Z,1002.64
2023-04-29T00:01:29.285Z,1002.64
2023-04-29T00:02:00.510Z,1002.54
2023-04-29T00:02:33.370Z,1002.54
2023-04-29T00:03:04.462Z,1002.44
2023-04-29T00:03:35.315Z,1002.64
2023-04-29T00:03:52.453Z,1002.64
2023-04-29T00:04:24.616Z,1002.64
2023-04-29T00:04:43.011Z,1002.64
2023-04-29T00:05:12.908Z,1002.64
2023-04-29T00:05:34.230Z,1002.64
2023-04-29T00:06:00.638Z,1002.64
2023-04-29T00:06:32.391Z,1002.64
2023-04-29T00:07:05.249Z,1002.71
2023-04-29T00:07:34.057Z,1002.71
2023-04-29T00:07:52.363Z,1002.71
2023-04-29T00:08:24.414Z,1002.71
2023-04-29T00:08:41.611Z,1002.54
2023-04-29T00:09:13.365Z,1002.54
2023-04-29T00:09:34.102Z,1002.64
2023-04-29T00:10:00.620Z,1002.64
2023-04-29T00:10:32.377Z,1002.64
2023-04-29T00:11:04.352Z,1002.64
2023-04-29T00:11:34.083Z,1002.64
2023-04-29T00:11:52.405Z,1002.64
2023-04-29T00:12:25.278Z,1002.64
2023-04-29T00:12:57.481Z,1002.54
2023-04-29T00:13:29.311Z,1002.54
2023-04-29T00:14:00.388Z,1002.34
2023-04-29T00:14:33.301Z,1002.34
2023-04-29T00:15:04.408Z,1002.64
2023-04-29T00:15:34.914Z,1002.71
2023-04-29T00:15:52.379Z,1002.71
2023-04-29T00:16:24.372Z,1002.71
2023-04-29T00:16:42.515Z,1002.64
2023-04-29T00:17:12.445Z,1002.64
2023-04-29T00:17:34.102Z,1002.44
2023-04-29T00:18:00.425Z,1002.44
2023-04-29T00:18:32.468Z,1002.44
2023-04-29T00:19:05.382Z,1002.64
2023-04-29T00:19:34.063Z,1002.54
2023-04-29T00:19:52.688Z,1002.54
2023-04-29T00:20:24.415Z,1002.54
2023-04-29T00:20:41.551Z,1002.71
2023-04-29T00:21:13.266Z,1002.71
2023-04-29T00:21:34.140Z,1002.54
2023-04-29T00:22:00.480Z,1002.54
2023-04-29T00:22:32.384Z,1002.54
2023-04-29T00:23:04.399Z,1002.81
2023-04-29T00:23:34.091Z,1002.54
2023-04-29T00:23:52.369Z,1002.54
2023-04-29T00:24:25.369Z,1002.54
2023-04-29T00:24:41.839Z,1002.81
2023-04-29T00:25:12.407Z,1002.81
2023-04-29T00:25:34.398Z,1002.64
2023-04-29T00:26:00.350Z,1002.64
2023-04-29T00:26:33.176Z,1002.64
2023-04-29T00:27:04.347Z,1002.54
2023-04-29T00:27:36.160Z,1002.64
2023-04-29T00:28:08.353Z,1002.64
2023-04-29T00:28:34.926Z,1002.71
2023-04-29T00:28:56.462Z,1002.71
2023-04-29T00:29:28.431Z,1002.71
2023-04-29T00:30:02.889Z,1002.71
2023-04-29T00:30:32.389Z,1002.71
2023-04-29T00:31:05.294Z,1002.64
2023-04-29T00:31:34.201Z,1002.64
2023-04-29T00:31:52.368Z,1002.64
2023-04-29T00:32:24.361Z,1002.64
2023-04-29T00:32:41.583Z,1002.44
2023-04-29T00:33:13.254Z,1002.44
2023-04-29T00:33:34.101Z,1002.71
2023-04-29T00:34:00.355Z,1002.71
2023-04-29T00:34:32.328Z,1002.71
2023-04-29T00:35:04.398Z,1002.71
2023-04-29T00:35:34.442Z,1002.71
2023-04-29T00:35:52.391Z,1002.71
2023-04-29T00:36:25.362Z,1002.71
2023-04-29T00:36:41.867Z,1002.64
2023-04-29T00:37:12.366Z,1002.64
2023-04-29T00:37:34.092Z,1002.81
2023-04-29T00:38:12.236Z,1002.81
2023-04-29T00:38:16.372Z,1002.81
2023-04-29T00:38:48.450Z,1002.54
2023-04-29T00:39:20.335Z,1002.54
2023-04-29T00:39:38.578Z,1002.64
2023-04-29T00:40:08.324Z,1002.64
2023-04-29T00:40:35.108Z,1002.54
2023-04-29T00:40:56.322Z,1002.54
2023-04-29T00:41:28.448Z,1002.54
2023-04-29T00:42:01.308Z,1002.64
2023-04-29T00:42:32.491Z,1002.64
2023-04-29T00:43:05.260Z,1002.64
2023-04-29T00:43:34.213Z,1002.71
2023-04-29T00:43:52.380Z,1002.71
2023-04-29T00:44:24.324Z,1002.71
2023-04-29T00:44:41.600Z,1002.64
2023-04-29T00:45:13.529Z,1002.64
2023-04-29T00:45:34.157Z,1002.64
2023-04-29T00:46:01.958Z,1002.64
2023-04-29T00:46:32.393Z,1002.64
2023-04-29T00:47:04.323Z,1002.64
2023-04-29T00:47:34.109Z,1002.64
2023-04-29T00:47:52.463Z,1002.64
2023-04-29T00:48:25.270Z,1002.64
2023-04-29T00:48:56.414Z,1002.44
2023-04-29T00:49:29.277Z,1002.44
2023-04-29T00:50:00.489Z,1002.71
2023-04-29T00:50:33.244Z,1002.71
2023-04-29T00:51:04.382Z,1002.64
2023-04-29T00:51:34.971Z,1002.64
2023-04-29T00:51:52.388Z,1002.64
2023-04-29T00:52:24.281Z,1002.64
2023-04-29T00:52:42.426Z,1002.64
2023-04-29T00:53:13.322Z,1002.64
2023-04-29T00:53:34.442Z,1002.71
2023-04-29T00:54:00.407Z,1002.71
2023-04-29T00:54:32.310Z,1002.71
2023-04-29T00:55:05.348Z,1002.64
2023-04-29T00:55:34.312Z,1002.71
2023-04-29T00:55:52.393Z,1002.71
2023-04-29T00:56:24.370Z,1002.71
2023-04-29T00:56:41.574Z,1002.64
2023-04-29T00:57:13.308Z,1002.64
2023-04-29T00:57:34.074Z,1002.54
2023-04-29T00:58:00.318Z,1002.54
2023-04-29T00:58:32.389Z,1002.54
2023-04-29T00:59:04.409Z,1002.71
2023-04-29T00:59:34.116Z,1002.44
2023-04-29T00:59:52.707Z,1002.44
2023-04-29T01:00:30.239Z,1002.44
2023-04-29T01:00:56.559Z,1002.71
2023-04-29T01:01:28.426Z,1002.71
2023-04-29T01:02:06.622Z,1002.71
2023-04-29T01:02:16.349Z,1002.54
2023-04-29T01:02:34.187Z,1002.71
2023-04-29T01:03:04.569Z,1002.71
2023-04-29T01:03:35.071Z,1002.64
2023-04-29T01:03:53.656Z,1002.64
2023-04-29T01:04:24.334Z,1002.64
2023-04-29T01:04:41.651Z,1002.64
2023-04-29T01:05:12.325Z,1002.64
2023-04-29T01:05:34.193Z,1002.44
2023-04-29T01:06:01.339Z,1002.44
2023-04-29T01:06:32.448Z,1002.44
2023-04-29T01:07:05.298Z,1002.71
2023-04-29T01:07:34.101Z,1002.64
2023-04-29T01:07:52.391Z,1002.64
2023-04-29T01:08:24.347Z,1002.64
2023-04-29T01:08:41.534Z,1002.64
2023-04-29T01:09:13.438Z,1002.64
2023-04-29T01:09:34.204Z,1002.71
2023-04-29T01:10:00.484Z,1002.71
2023-04-29T01:10:32.305Z,1002.71
2023-04-29T01:11:04.342Z,1002.71
2023-04-29T01:11:34.092Z,1002.71
2023-04-29T01:11:52.406Z,1002.71
2023-04-29T01:12:25.293Z,1002.71
2023-04-29T01:12:42.132Z,1002.64
2023-04-29T01:13:12.388Z,1002.64
2023-04-29T01:13:34.030Z,1002.64
2023-04-29T01:14:00.361Z,1002.64
2023-04-29T01:14:33.312Z,1002.64
2023-04-29T01:15:04.353Z,1002.64
2023-04-29T01:15:35.071Z,1002.64
2023-04-29T01:15:52.451Z,1002.64
2023-04-29T01:16:24.344Z,1002.64
2023-04-29T01:16:42.592Z,1002.54
2023-04-29T01:17:12.348Z,1002.54
2023-04-29T01:17:34.140Z,1002.71
2023-04-29T01:18:00.397Z,1002.71
2023-04-29T01:18:32.337Z,1002.71
2023-04-29T01:19:05.410Z,1002.71
2023-04-29T01:19:34.036Z,1002.71
2023-04-29T01:19:52.634Z,1002.71
2023-04-29T01:20:24.312Z,1002.71
2023-04-29T01:20:41.584Z,1002.71
2023-04-29T01:21:13.176Z,1002.71
2023-04-29T01:21:34.059Z,1002.64
2023-04-29T01:22:00.349Z,1002.64
2023-04-29T01:22:32.327Z,1002.64
2023-04-29T01:23:04.466Z,1002.64
2023-04-29T01:23:34.058Z,1002.71
2023-04-29T01:23:52.640Z,1002.71
2023-04-29T01:24:25.175Z,1002.71
2023-04-29T01:24:42.126Z,1002.71
2023-04-29T01:25:12.408Z,1002.71
2023-04-29T01:25:34.083Z,1002.71
2023-04-29T01:26:00.525Z,1002.71
2023-04-29T01:26:33.253Z,1002.71
2023-04-29T01:27:04.336Z,1002.71
2023-04-29T01:27:35.193Z,1002.71
2023-04-29T01:28:08.305Z,1002.71
2023-04-29T01:28:34.071Z,1002.81
2023-04-29T01:28:56.318Z,1002.81
2023-04-29T01:29:28.286Z,1002.81
2023-04-29T01:30:02.294Z,1002.71
2023-04-29T01:30:32.369Z,1002.71
2023-04-29T01:31:05.333Z,1002.71
2023-04-29T01:31:34.071Z,1002.81
2023-04-29T01:31:52.485Z,1002.81
2023-04-29T01:32:24.279Z,1002.81
2023-04-29T01:32:41.696Z,1002.54
2023-04-29T01:33:13.221Z,1002.54
2023-04-29T01:33:34.776Z,1002.71
2023-04-29T01:34:00.334Z,1002.71
2023-04-29T01:34:32.330Z,1002.71
2023-04-29T01:35:04.274Z,1002.71
2023-04-29T01:35:34.095Z,1002.81
2023-04-29T01:35:52.269Z,1002.81
2023-04-29T01:36:25.202Z,1002.81
2023-04-29T01:36:56.612Z,1002.71
2023-04-29T01:37:29.177Z,1002.71
2023-04-29T01:38:00.290Z,1002.81
2023-04-29T01:38:33.226Z,1002.81
2023-04-29T01:39:04.308Z,1002.91
2023-04-29T01:39:35.104Z,1002.81
2023-04-29T01:39:52.542Z,1002.81
2023-04-29T01:40:24.281Z,1002.81
2023-04-29T01:40:42.403Z,1002.81
2023-04-29T01:41:12.403Z,1002.81
2023-04-29T01:41:34.067Z,1002.71
2023-04-29T01:42:00.327Z,1002.71
2023-04-29T01:42:32.351Z,1002.71
2023-04-29T01:43:05.243Z,1002.81
2023-04-29T01:43:34.158Z,1002.91
2023-04-29T01:43:52.276Z,1002.91
2023-04-29T01:44:24.287Z,1002.91
2023-04-29T01:44:41.510Z,1002.81
2023-04-29T01:45:13.228Z,1002.81
2023-04-29T01:45:34.936Z,1002.71
2023-04-29T01:46:00.289Z,1002.71
2023-04-29T01:46:32.398Z,1002.71
2023-04-29T01:47:04.313Z,1002.54
2023-04-29T01:47:34.106Z,1002.64
2023-04-29T01:47:52.372Z,1002.64
2023-04-29T01:48:25.361Z,1002.64
2023-04-29T01:48:57.464Z,1002.64
2023-04-29T01:49:29.358Z,1002.64
2023-04-29T01:50:00.358Z,1002.54
2023-04-29T01:50:33.269Z,1002.54
2023-04-29T01:51:04.237Z,1002.71
2023-04-29T01:51:35.055Z,1002.81
2023-04-29T01:51:52.382Z,1002.81
2023-04-29T01:52:24.269Z,1002.81
2023-04-29T01:52:42.493Z,1002.81
2023-04-29T01:53:12.426Z,1002.81
2023-04-29T01:53:34.329Z,1002.71
2023-04-29T01:54:00.275Z,1002.71
2023-04-29T01:54:32.328Z,1002.71
2023-04-29T01:55:05.340Z,1002.81
2023-04-29T01:55:34.140Z,1002.64
2023-04-29T01:55:52.290Z,1002.64
2023-04-29T01:56:24.350Z,1002.64
2023-04-29T01:56:41.604Z,1002.71
2023-04-29T01:57:13.376Z,1002.71
2023-04-29T01:57:34.547Z,1003.01
2023-04-29T01:58:00.278Z,1003.01
2023-04-29T01:58:32.308Z,1003.01
2023-04-29T01:59:04.584Z,1002.71
2023-04-29T01:59:34.071Z,1002.81
2023-04-29T01:59:52.364Z,1002.81
2023-04-29T02:00:25.231Z,1002.81
2023-04-29T02:00:58.717Z,1002.71
2023-04-29T02:01:29.242Z,1002.71
2023-04-29T02:02:00.505Z,1002.71
2023-04-29T02:02:33.349Z,1002.71
2023-04-29T02:03:04.417Z,1002.91
2023-04-29T02:03:36.251Z,1002.81
2023-04-29T02:04:08.366Z,1002.81
2023-04-29T02:04:34.090Z,1002.71
2023-04-29T02:04:56.541Z,1002.71
2023-04-29T02:05:28.296Z,1002.71
2023-04-29T02:06:01.215Z,1002.71
2023-04-29T02:06:32.388Z,1002.71
2023-04-29T02:07:05.187Z,1002.81
2023-04-29T02:07:34.046Z,1002.71
2023-04-29T02:07:52.510Z,1002.71
2023-04-29T02:08:24.737Z,1002.71
2023-04-29T02:08:41.513Z,1002.91
2023-04-29T02:09:13.274Z,1002.91
2023-04-29T02:09:34.414Z,1002.81
2023-04-29T02:10:00.339Z,1002.81
2023-04-29T02:10:32.348Z,1002.81
2023-04-29T02:11:04.295Z,1003.11
2023-04-29T02:11:34.085Z,1002.91
2023-04-29T02:11:52.291Z,1002.91
2023-04-29T02:12:25.167Z,1002.91
2023-04-29T02:12:42.043Z,1002.91
2023-04-29T02:13:12.319Z,1002.91
2023-04-29T02:13:34.027Z,1003.01
2023-04-29T02:14:00.310Z,1003.01
2023-04-29T02:14:34.144Z,1003.01
2023-04-29T02:15:04.476Z,1003.01
2023-04-29T02:15:34.979Z,1002.81
2023-04-29T02:15:52.339Z,1002.81
2023-04-29T02:16:24.402Z,1002.81
2023-04-29T02:16:42.466Z,1003.01
2023-04-29T02:17:12.291Z,1003.01
2023-04-29T02:17:34.061Z,1002.91
2023-04-29T02:18:00.331Z,1002.91
2023-04-29T02:18:32.287Z,1002.91
2023-04-29T02:19:05.303Z,1002.81
2023-04-29T02:19:34.379Z,1003.01
2023-04-29T02:19:52.411Z,1003.01
2023-04-29T02:20:24.328Z,1003.01
2023-04-29T02:20:41.505Z,1003.01
2023-04-29T02:21:13.161Z,1003.01
2023-04-29T02:21:34.452Z,1002.81
2023-04-29T02:22:00.250Z,1002.81
2023-04-29T02:22:32.340Z,1002.81
2023-04-29T02:23:04.218Z,1002.91
2023-04-29T02:23:34.070Z,1003.01
2023-04-29T02:23:52.394Z,1003.01
2023-04-29T02:24:25.254Z,1003.01
2023-04-29T02:24:41.898Z,1002.81
2023-04-29T02:25:12.273Z,1002.81
2023-04-29T02:25:35.593Z,1002.91
2023-04-29T02:26:00.254Z,1002.91
2023-04-29T02:26:33.281Z,1002.91
2023-04-29T02:27:04.357Z,1003.11
2023-04-29T02:27:35.178Z,1003.01
2023-04-29T02:27:52.441Z,1003.01
2023-04-29T02:28:24.225Z,1003.01
2023-04-29T02:28:42.389Z,1003.11
2023-04-29T02:29:12.247Z,1003.11
2023-04-29T02:29:34.061Z,1003.11
2023-04-29T02:30:00.737Z,1003.11
2023-04-29T02:30:32.286Z,1003.11
2023-04-29T02:31:05.272Z,1003.22
2023-04-29T02:31:34.075Z,1003.01
2023-04-29T02:31:52.285Z,1003.01
2023-04-29T02:32:24.353Z,1003.01
2023-04-29T02:32:41.619Z,1003.01
2023-04-29T02:33:13.335Z,1003.01
2023-04-29T02:33:34.059Z,1003.01
2023-04-29T02:34:00.198Z,1003.01
2023-04-29T02:34:32.320Z,1003.01
2023-04-29T02:35:04.253Z,1003.22
2023-04-29T02:35:34.013Z,1003.22
2023-04-29T02:35:52.505Z,1003.22
2023-04-29T02:36:25.337Z,1003.22
2023-04-29T02:36:57.469Z,1003.22
2023-04-29T02:37:29.298Z,1003.22
2023-04-29T02:38:00.207Z,1003.01
2023-04-29T02:38:33.169Z,1003.01
2023-04-29T02:39:04.228Z,1003.01
2023-04-29T02:39:35.396Z,1003.01
2023-04-29T02:40:07.519Z,1003.01
2023-04-29T02:40:24.044Z,1003.01
2023-04-29T02:40:42.121Z,1003.01
2023-04-29T02:41:12.236Z,1003.01
2023-04-29T02:41:35.115Z,1003.01
2023-04-29T02:42:01.282Z,1003.01
2023-04-29T02:42:32.240Z,1003.01
2023-04-29T02:43:05.343Z,1003.01
2023-04-29T02:43:34.062Z,1003.11
2023-04-29T02:43:52.261Z,1003.11
2023-04-29T02:44:24.241Z,1003.11
2023-04-29T02:44:41.500Z,1003.01
2023-04-29T02:45:13.296Z,1003.01
2023-04-29T02:45:34.616Z,1003.11
2023-04-29T02:46:00.385Z,1003.11
2023-04-29T02:46:32.211Z,1003.11
2023-04-29T02:47:04.258Z,1003.11
2023-04-29T02:47:34.086Z,1003.01
2023-04-29T02:47:52.235Z,1003.01
2023-04-29T02:48:25.155Z,1003.01
2023-04-29T02:48:42.130Z,1003.01
2023-04-29T02:49:13.590Z,1003.01
2023-04-29T02:49:34.055Z,1002.91
2023-04-29T02:50:00.278Z,1002.91
2023-04-29T02:50:37.351Z,1002.91
2023-04-29T02:51:04.233Z,1003.11
2023-04-29T02:51:34.228Z,1003.01
2023-04-29T02:52:08.189Z,1003.01
2023-04-29T02:52:34.093Z,1003.11
2023-04-29T02:52:57.142Z,1003.11
2023-04-29T02:53:28.220Z,1003.11
2023-04-29T02:54:01.258Z,1002.91
2023-04-29T02:54:32.308Z,1002.91
2023-04-29T02:55:05.476Z,1002.91
2023-04-29T02:55:34.118Z,1002.91
2023-04-29T02:55:52.312Z,1002.91
2023-04-29T02:56:24.968Z,1002.91
2023-04-29T02:56:41.506Z,1003.22
2023-04-29T02:57:13.209Z,1003.22
2023-04-29T02:57:34.059Z,1003.01
2023-04-29T02:58:00.252Z,1003.01
2023-04-29T02:58:32.233Z,1003.01
2023-04-29T02:59:04.238Z,1003.01
2023-04-29T02:59:34.089Z,1003.01
2023-04-29T02:59:52.514Z,1003.01
2023-04-29T03:00:25.207Z,1003.01
2023-04-29T03:00:41.940Z,1002.91
2023-04-29T03:01:12.314Z,1002.91
2023-04-29T03:01:34.345Z,1003.01
2023-04-29T03:02:00.231Z,1003.01
2023-04-29T03:02:34.802Z,1003.01
2023-04-29T03:03:04.298Z,1003.01
2023-04-29T03:03:36.446Z,1003.11
2023-04-29T03:04:08.533Z,1003.11
2023-04-29T03:04:34.403Z,1003.01
2023-04-29T03:04:56.239Z,1003.01
2023-04-29T03:05:28.248Z,1003.01
2023-04-29T03:06:01.240Z,1003.01
2023-04-29T03:06:32.219Z,1003.01
2023-04-29T03:07:05.108Z,1003.01
2023-04-29T03:07:34.040Z,1003.11
2023-04-29T03:07:52.210Z,1003.11
2023-04-29T03:08:24.307Z,1003.11
2023-04-29T03:08:41.540Z,1003.11
2023-04-29T03:09:13.287Z,1003.11
2023-04-29T03:09:34.122Z,1003.01
2023-04-29T03:10:00.333Z,1003.01
2023-04-29T03:10:32.253Z,1003.01
2023-04-29T03:11:04.237Z,1003.11
2023-04-29T03:11:34.058Z,1003.11
2023-04-29T03:11:52.217Z,1003.11
2023-04-29T03:12:25.160Z,1003.11
2023-04-29T03:12:56.231Z,1003.01
2023-04-29T03:13:29.207Z,1003.01
2023-04-29T03:14:00.232Z,1003.01
2023-04-29T03:14:33.249Z,1003.01
2023-04-29T03:15:04.316Z,1003.11
2023-04-29T03:15:35.267Z,1003.32
2023-04-29T03:16:13.465Z,1003.32
2023-04-29T03:16:24.228Z,1003.32
2023-04-29T03:16:42.485Z,1003.22
2023-04-29T03:17:20.641Z,1003.22
2023-04-29T03:17:28.219Z,1003.22
2023-04-29T03:18:00.317Z,1003.01
2023-04-29T03:18:32.169Z,1003.01
2023-04-29T03:19:04.229Z,1003.11
2023-04-29T03:19:34.039Z,1003.01
2023-04-29T03:19:53.427Z,1003.01
2023-04-29T03:20:24.296Z,1003.01
2023-04-29T03:20:41.471Z,1003.11
2023-04-29T03:21:12.299Z,1003.11
2023-04-29T03:21:34.045Z,1003.11
2023-04-29T03:22:01.183Z,1003.11
2023-04-29T03:22:32.255Z,1003.11
2023-04-29T03:23:06.600Z,1003.11
2023-04-29T03:23:34.130Z,1003.22
2023-04-29T03:23:52.211Z,1003.22
2023-04-29T03:24:24.280Z,1003.22
2023-04-29T03:24:41.439Z,1003.01
2023-04-29T03:25:13.206Z,1003.01
2023-04-29T03:25:34.136Z,1003.22
2023-04-29T03:26:00.218Z,1003.22
2023-04-29T03:26:32.201Z,1003.22
2023-04-29T03:27:04.167Z,1003.42
2023-04-29T03:27:34.067Z,1003.11
2023-04-29T03:27:52.239Z,1003.11
2023-04-29T03:28:25.114Z,1003.11
2023-04-29T03:28:56.281Z,1003.11
2023-04-29T03:29:29.281Z,1003.11
2023-04-29T03:30:00.781Z,1003.22
2023-04-29T03:30:33.277Z,1003.22
2023-04-29T03:31:04.200Z,1003.11
2023-04-29T03:31:36.687Z,1003.22
2023-04-29T03:32:08.201Z,1003.22
2023-04-29T03:32:34.137Z,1003.22
2023-04-29T03:32:56.199Z,1003.22
2023-04-29T03:33:28.222Z,1003.22
2023-04-29T03:34:01.299Z,1003.01
2023-04-29T03:34:32.458Z,1003.01
2023-04-29T03:35:05.210Z,1003.11
2023-04-29T03:35:34.079Z,1003.22
2023-04-29T03:35:52.191Z,1003.22
2023-04-29T03:36:24.189Z,1003.22
2023-04-29T03:36:41.458Z,1003.11
2023-04-29T03:37:13.113Z,1003.11
2023-04-29T03:37:34.064Z,1003.01
2023-04-29T03:38:00.290Z,1003.01
2023-04-29T03:38:32.212Z,1003.01
2023-04-29T03:39:04.157Z,1003.22
2023-04-29T03:39:34.509Z,1003.11
2023-04-29T03:39:52.229Z,1003.11
2023-04-29T03:40:25.227Z,1003.11
2023-04-29T03:40:42.171Z,1003.22
2023-04-29T03:41:12.251Z,1003.22
2023-04-29T03:41:34.099Z,1003.11
2023-04-29T03:42:00.268Z,1003.11
2023-04-29T03:42:33.321Z,1003.11
2023-04-29T03:43:04.262Z,1003.22
2023-04-29T03:43:35.214Z,1003.22
2023-04-29T03:44:08.160Z,1003.22
2023-04-29T03:44:34.036Z,1003.32
2023-04-29T03:44:56.182Z,1003.32
2023-04-29T03:45:28.188Z,1003.32
2023-04-29T03:46:01.433Z,1003.32
2023-04-29T03:46:32.463Z,1003.32
2023-04-29T03:47:05.187Z,1003.22
2023-04-29T03:47:34.162Z,1003.22
2023-04-29T03:47:52.504Z,1003.22
2023-04-29T03:48:24.220Z,1003.22
2023-04-29T03:48:41.403Z,1003.22
2023-04-29T03:49:13.220Z,1003.22
2023-04-29T03:49:34.012Z,1003.32
2023-04-29T03:50:00.280Z,1003.32
2023-04-29T03:50:32.160Z,1003.32
2023-04-29T03:51:04.174Z,1003.11
2023-04-29T03:51:34.007Z,1003.32
2023-04-29T03:51:52.361Z,1003.32
2023-04-29T03:52:26.245Z,1003.32
2023-04-29T03:52:56.356Z,1003.42
2023-04-29T03:53:29.212Z,1003.42
2023-04-29T03:54:00.179Z,1003.42
2023-04-29T03:54:33.342Z,1003.42
2023-04-29T03:55:04.289Z,1003.22
2023-04-29T03:55:35.241Z,1003.32
2023-04-29T03:55:52.201Z,1003.32
2023-04-29T03:56:24.214Z,1003.32
2023-04-29T03:56:42.531Z,1003.52
2023-04-29T03:57:12.249Z,1003.52
2023-04-29T03:57:34.045Z,1003.52
2023-04-29T03:58:01.654Z,1003.52
2023-04-29T03:58:32.184Z,1003.52
2023-04-29T03:59:05.162Z,1003.52
2023-04-29T03:59:34.856Z,1003.42
2023-04-29T03:59:52.681Z,1003.42
2023-04-29T04:00:24.353Z,1003.42
2023-04-29T04:00:41.406Z,1003.32
2023-04-29T04:01:13.029Z,1003.32
2023-04-29T04:01:34.133Z,1003.52
2023-04-29T04:02:00.521Z,1003.52
2023-04-29T04:02:32.449Z,1003.52
2023-04-29T04:03:05.735Z,1003.52
2023-04-29T04:03:34.184Z,1003.42
2023-04-29T04:03:52.508Z,1003.42
2023-04-29T04:04:25.281Z,1003.42
2023-04-29T04:04:42.274Z,1003.42
2023-04-29T04:05:13.573Z,1003.42
2023-04-29T04:05:34.032Z,1003.62
2023-04-29T04:06:01.079Z,1003.62
2023-04-29T04:06:33.245Z,1003.62
2023-04-29T04:07:04.258Z,1003.22
2023-04-29T04:07:34.957Z,1003.52
2023-04-29T04:07:52.457Z,1003.52
2023-04-29T04:08:24.369Z,1003.52
2023-04-29T04:08:42.374Z,1003.42
2023-04-29T04:09:12.337Z,1003.42
2023-04-29T04:09:34.582Z,1003.42
2023-04-29T04:10:00.555Z,1003.42
2023-04-29T04:10:32.227Z,1003.42
2023-04-29T04:11:05.193Z,1003.72
2023-04-29T04:11:34.115Z,1003.42
2023-04-29T04:11:52.370Z,1003.42
2023-04-29T04:12:25.251Z,1003.42
2023-04-29T04:12:43.954Z,1003.62
2023-04-29T04:13:13.170Z,1003.62
2023-04-29T04:13:34.069Z,1003.42
2023-04-29T04:14:00.283Z,1003.42
2023-04-29T04:14:32.193Z,1003.42
2023-04-29T04:15:04.285Z,1003.83
2023-04-29T04:15:34.221Z,1003.62
2023-04-29T04:15:52.608Z,1003.62
2023-04-29T04:16:25.256Z,1003.62
2023-04-29T04:16:56.259Z,1003.52
2023-04-29T04:17:29.268Z,1003.52
2023-04-29T04:18:00.280Z,1003.62
2023-04-29T04:18:34.672Z,1003.62
2023-04-29T04:19:04.291Z,1003.62
2023-04-29T04:19:36.587Z,1003.62
2023-04-29T04:20:08.247Z,1003.62
2023-04-29T04:20:34.185Z,1003.72
2023-04-29T04:20:56.181Z,1003.72
2023-04-29T04:21:28.307Z,1003.72
2023-04-29T04:22:01.249Z,1003.52
2023-04-29T04:22:32.232Z,1003.52
2023-04-29T04:23:04.993Z,1003.62
2023-04-29T04:23:34.456Z,1003.72
2023-04-29T04:23:52.340Z,1003.72
2023-04-29T04:24:24.191Z,1003.72
2023-04-29T04:24:41.451Z,1003.72
2023-04-29T04:25:13.169Z,1003.72
2023-04-29T04:25:34.051Z,1003.62
2023-04-29T04:26:01.227Z,1003.62
2023-04-29T04:26:32.202Z,1003.62
2023-04-29T04:27:04.320Z,1003.72
2023-04-29T04:27:34.065Z,1003.62
2023-04-29T04:27:52.402Z,1003.62
2023-04-29T04:28:25.126Z,1003.62
2023-04-29T04:28:56.205Z,1003.62
2023-04-29T04:29:29.127Z,1003.62
2023-04-29T04:30:00.284Z,1003.62
2023-04-29T04:30:33.107Z,1003.62
2023-04-29T04:31:04.399Z,1003.42
2023-04-29T04:31:35.093Z,1003.72
2023-04-29T04:31:52.507Z,1003.72
2023-04-29T04:32:24.282Z,1003.72
2023-04-29T04:32:42.449Z,1003.62
2023-04-29T04:33:12.264Z,1003.62
2023-04-29T04:33:34.190Z,1003.72
2023-04-29T04:34:00.208Z,1003.72
2023-04-29T04:34:32.241Z,1003.72
2023-04-29T04:35:05.218Z,1003.72
2023-04-29T04:35:34.101Z,1003.83
2023-04-29T04:35:52.352Z,1003.83
2023-04-29T04:36:24.260Z,1003.83
2023-04-29T04:36:41.630Z,1003.62
2023-04-29T04:37:13.088Z,1003.62
2023-04-29T04:37:34.086Z,1003.72
2023-04-29T04:38:00.195Z,1003.72
2023-04-29T04:38:32.178Z,1003.72
2023-04-29T04:39:04.369Z,1003.83
2023-04-29T04:39:34.136Z,1003.93
2023-04-29T04:39:52.714Z,1003.93
2023-04-29T04:40:25.236Z,1003.93
2023-04-29T04:40:56.147Z,1003.93
2023-04-29T04:41:29.359Z,1003.93
2023-04-29T04:42:00.181Z,1003.93
2023-04-29T04:42:33.325Z,1003.93
2023-04-29T04:43:04.314Z,1003.93
2023-04-29T04:43:35.107Z,1003.72
2023-04-29T04:44:08.142Z,1003.72
2023-04-29T04:44:34.317Z,1003.93
2023-04-29T04:44:56.245Z,1003.93
2023-04-29T04:45:28.450Z,1003.93
2023-04-29T04:46:02.056Z,1003.93
2023-04-29T04:46:32.236Z,1003.93
2023-04-29T04:47:04.947Z,1004.03
2023-04-29T04:47:34.233Z,1003.72
2023-04-29T04:47:52.352Z,1003.72
2023-04-29T04:48:24.117Z,1003.72
2023-04-29T04:48:41.390Z,1004.03
2023-04-29T04:49:13.151Z,1004.03
2023-04-29T04:49:34.115Z,1003.72
2023-04-29T04:50:00.282Z,1003.72
2023-04-29T04:50:32.174Z,1003.72
2023-04-29T04:51:10.330Z,1003.72
2023-04-29T04:51:21.070Z,1004.03
2023-04-29T04:51:38.511Z,1003.83
2023-04-29T04:52:08.254Z,1003.83
2023-04-29T04:52:34.194Z,1004.03
2023-04-29T04:52:56.215Z,1004.03
2023-04-29T04:53:29.065Z,1004.03
2023-04-29T04:54:00.174Z,1003.93
2023-04-29T04:54:33.150Z,1003.93
2023-04-29T04:55:04.494Z,1003.93
2023-04-29T04:55:35.004Z,1004.13
2023-04-29T04:56:08.175Z,1004.13
2023-04-29T04:56:34.108Z,1004.03
2023-04-29T04:56:56.198Z,1004.03
2023-04-29T04:57:28.507Z,1004.03
2023-04-29T04:58:01.599Z,1003.93
2023-04-29T04:58:32.242Z,1003.93
2023-04-29T04:59:05.193Z,1003.93
2023-04-29T04:59:34.176Z,1004.03
2023-04-29T04:59:52.658Z,1004.03
2023-04-29T05:00:24.390Z,1004.03
2023-04-29T05:00:41.547Z,1003.93
2023-04-29T05:01:13.262Z,1003.93
2023-04-29T05:01:34.203Z,1004.03
2023-04-29T05:02:00.250Z,1004.03
2023-04-29T05:02:32.308Z,1004.03
2023-04-29T05:03:04.614Z,1004.13
2023-04-29T05:03:34.438Z,1004.23
2023-04-29T05:03:52.550Z,1004.23
2023-04-29T05:04:25.668Z,1004.23
2023-04-29T05:04:57.556Z,1004.13
2023-04-29T05:05:29.211Z,1004.13
2023-04-29T05:06:00.481Z,1004.13
2023-04-29T05:06:33.266Z,1004.13
2023-04-29T05:07:04.519Z,1004.03
2023-04-29T05:07:36.647Z,1004.23
2023-04-29T05:08:08.258Z,1004.23
2023-04-29T05:08:34.197Z,1004.13
2023-04-29T05:08:56.252Z,1004.13
2023-04-29T05:09:28.478Z,1004.13
2023-04-29T05:10:02.311Z,1004.13
2023-04-29T05:10:32.203Z,1004.13
2023-04-29T05:11:05.286Z,1004.44
2023-04-29T05:11:34.091Z,1004.13
2023-04-29T05:11:52.636Z,1004.13
2023-04-29T05:12:24.251Z,1004.13
2023-04-29T05:12:41.586Z,1004.23
2023-04-29T05:13:13.125Z,1004.23
2023-04-29T05:13:34.172Z,1004.44
2023-04-29T05:14:00.846Z,1004.44
2023-04-29T05:14:32.187Z,1004.44
2023-04-29T05:15:04.566Z,1004.44
2023-04-29T05:15:35.073Z,1004.23
2023-04-29T05:16:08.235Z,1004.23
2023-04-29T05:16:34.308Z,1004.44
2023-04-29T05:16:56.160Z,1004.44
2023-04-29T05:17:29.123Z,1004.44
2023-04-29T05:18:00.156Z,1004.23
2023-04-29T05:18:33.036Z,1004.23
2023-04-29T05:19:04.477Z,1004.33
2023-04-29T05:19:42.622Z,1004.33
2023-04-29T05:19:50.788Z,1004.44
2023-04-29T05:20:24.293Z,1004.44
2023-04-29T05:20:41.485Z,1004.23
2023-04-29T05:21:14.164Z,1004.23
2023-04-29T05:21:34.164Z,1004.44
2023-04-29T05:22:00.247Z,1004.44
2023-04-29T05:22:32.263Z,1004.44
2023-04-29T05:23:04.616Z,1004.44
2023-04-29T05:23:34.139Z,1004.03
2023-04-29T05:23:52.603Z,1004.03
2023-04-29T05:24:25.133Z,1004.03
2023-04-29T05:24:56.174Z,1004.33
2023-04-29T05:25:29.060Z,1004.33
2023-04-29T05:26:00.523Z,1004.44
2023-04-29T05:26:33.077Z,1004.44
2023-04-29T05:27:04.699Z,1004.33
2023-04-29T05:27:35.333Z,1004.44
2023-04-29T05:27:52.737Z,1004.44
2023-04-29T05:28:26.045Z,1004.44
2023-04-29T05:28:42.344Z,1004.33
2023-04-29T05:29:12.238Z,1004.33
2023-04-29T05:29:34.085Z,1004.33
2023-04-29T05:30:00.366Z,1004.33
2023-04-29T05:30:32.131Z,1004.33
2023-04-29T05:31:05.032Z,1004.44
2023-04-29T05:31:34.106Z,1004.33
2023-04-29T05:31:52.512Z,1004.33
2023-04-29T05:32:24.161Z,1004.33
2023-04-29T05:32:56.248Z,1004.54
2023-04-29T05:33:28.456Z,1004.54
2023-04-29T05:34:00.167Z,1004.54
2023-04-29T05:34:32.262Z,1004.54